sensor_id;sensor_type;location;lat;lon;timestamp;pressure;altitude;pressure_sealevel;temperature;humidity
7834;BME280;3962;42.696;23.354;2023-06-14T00:01:07;94905.28;;;16.69;100.00
7834;BME280;3962;42.696;23.354;2023-06-14T00:03:35;94895.63;;;16.74;100.00
7834;BME280;3962;42.696;23.354;2023-06-14T00:06:01;94903.72;;;16.81;100.00
7834;BME280;3962;42.696;23.354;2023-06-14T00:08:28;94904.78;;;16.86;100.00
7834;BME280;3962;42.696;23.354;2023-06-14T00:10:56;94901.28;;;16.86;100.00
7834;BME280;3962;42.696;23.354;2023-06-14T00:13:23;94897.19;;;16.90;100.00
7834;BME280;3962;42.696;23.354;2023-06-14T00:15:50;94887.28;;;16.90;100.00
7834;BME280;3962;42.696;23.354;2023-06-14T00:18:20;94886.28;;;16.98;100.00
7834;BME280;3962;42.696;23.354;2023-06-14T00:20:49;94891.22;;;16.94;100.00
7834;BME280;3962;42.696;23.354;2023-06-14T00:23:16;94887.84;;;16.86;100.00
7834;BME280;3962;42.696;23.354;2023-06-14T00:25:43;94887.47;;;16.89;100.00
7834;BME280;3962;42.696;23.354;2023-06-14T00:28:12;94881.06;;;16.90;100.00
7834;BME280;3962;42.696;23.354;2023-06-14T00:30:38;94893.91;;;16.94;100.00
7834;BME280;3962;42.696;23.354;2023-06-14T00:33:05;94887.13;;;16.98;100.00
7834;BME280;3962;42.696;23.354;2023-06-14T00:35:32;94874.03;;;16.89;100.00
7834;BME280;3962;42.696;23.354;2023-06-14T00:38:02;94883.06;;;16.81;100.00
7834;BME280;3962;42.696;23.354;2023-06-14T00:40:28;94882.47;;;16.86;100.00
7834;BME280;3962;42.696;23.354;2023-06-14T00:42:55;94878.19;;;16.91;100.00
7834;BME280;3962;42.696;23.354;2023-06-14T00:45:23;94875.22;;;16.86;100.00
7834;BME280;3962;42.696;23.354;2023-06-14T00:47:51;94877.91;;;16.86;100.00
7834;BME280;3962;42.696;23.354;2023-06-14T00:50:20;94869.03;;;16.86;100.00
7834;BME280;3962;42.696;23.354;2023-06-14T00:52:48;94871.28;;;16.82;100.00
7834;BME280;3962;42.696;23.354;2023-06-14T00:55:16;94866.88;;;16.75;100.00
7834;BME280;3962;42.696;23.354;2023-06-14T00:57:44;94872.66;;;16.72;100.00
7834;BME280;3962;42.696;23.354;2023-06-14T01:00:12;94868.69;;;16.68;100.00
7834;BME280;3962;42.696;23.354;2023-06-14T01:02:41;94864.53;;;16.65;100.00
7834;BME280;3962;42.696;23.354;2023-06-14T01:05:08;94866.56;;;16.63;100.00
7834;BME280;3962;42.696;23.354;2023-06-14T01:07:45;94874.88;;;16.68;100.00
7834;BME280;3962;42.696;23.354;2023-06-14T01:10:28;94876.81;;;16.74;100.00
7834;BME280;3962;42.696;23.354;2023-06-14T01:13:05;94870.81;;;16.72;100.00
7834;BME280;3962;42.696;23.354;2023-06-14T01:15:34;94863.97;;;16.70;100.00
7834;BME280;3962;42.696;23.354;2023-06-14T01:18:03;94869.78;;;16.73;100.00
7834;BME280;3962;42.696;23.354;2023-06-14T01:20:32;94867.28;;;16.72;100.00
7834;BME280;3962;42.696;23.354;2023-06-14T01:23:03;94868.03;;;16.66;100.00
7834;BME280;3962;42.696;23.354;2023-06-14T01:25:30;94871.38;;;16.68;100.00
7834;BME280;3962;42.696;23.354;2023-06-14T01:28:00;94868.00;;;16.59;100.00
7834;BME280;3962;42.696;23.354;2023-06-14T01:30:29;94868.19;;;16.58;100.00
7834;BME280;3962;42.696;23.354;2023-06-14T01:32:59;94873.19;;;16.61;100.00
7834;BME280;3962;42.696;23.354;2023-06-14T01:35:26;94875.59;;;16.56;100.00
7834;BME280;3962;42.696;23.354;2023-06-14T01:37:53;94869.03;;;16.58;100.00
7834;BME280;3962;42.696;23.354;2023-06-14T01:40:22;94865.34;;;16.66;100.00
7834;BME280;3962;42.696;23.354;2023-06-14T01:42:50;94870.22;;;16.77;100.00
7834;BME280;3962;42.696;23.354;2023-06-14T01:45:19;94866.94;;;16.81;100.00
7834;BME280;3962;42.696;23.354;2023-06-14T01:47:47;94867.91;;;16.74;100.00
7834;BME280;3962;42.696;23.354;2023-06-14T01:50:14;94861.19;;;16.63;100.00
7834;BME280;3962;42.696;23.354;2023-06-14T01:52:41;94868.25;;;16.64;100.00
7834;BME280;3962;42.696;23.354;2023-06-14T01:55:08;94867.81;;;16.61;100.00
7834;BME280;3962;42.696;23.354;2023-06-14T01:57:37;94866.69;;;16.55;100.00
7834;BME280;3962;42.696;23.354;2023-06-14T02:00:04;94868.41;;;16.56;100.00
7834;BME280;3962;42.696;23.354;2023-06-14T02:02:35;94871.41;;;16.47;100.00
7834;BME280;3962;42.696;23.354;2023-06-14T02:05:03;94869.53;;;16.47;100.00
7834;BME280;3962;42.696;23.354;2023-06-14T02:07:30;94872.59;;;16.44;100.00
7834;BME280;3962;42.696;23.354;2023-06-14T02:09:57;94880.34;;;16.54;100.00
7834;BME280;3962;42.696;23.354;2023-06-14T02:12:24;94885.13;;;16.58;100.00
7834;BME280;3962;42.696;23.354;2023-06-14T02:14:52;94885.28;;;16.50;100.00
7834;BME280;3962;42.696;23.354;2023-06-14T02:17:19;94895.63;;;16.53;100.00
7834;BME280;3962;42.696;23.354;2023-06-14T02:19:46;94897.28;;;16.54;100.00
7834;BME280;3962;42.696;23.354;2023-06-14T02:22:13;94892.94;;;16.53;100.00
7834;BME280;3962;42.696;23.354;2023-06-14T02:24:41;94884.44;;;16.50;100.00
7834;BME280;3962;42.696;23.354;2023-06-14T02:27:09;94886.09;;;16.51;100.00
7834;BME280;3962;42.696;23.354;2023-06-14T02:29:36;94894.09;;;16.44;100.00
7834;BME280;3962;42.696;23.354;2023-06-14T02:32:05;94902.09;;;16.38;100.00
7834;BME280;3962;42.696;23.354;2023-06-14T02:34:33;94901.69;;;16.41;100.00
7834;BME280;3962;42.696;23.354;2023-06-14T02:37:00;94896.00;;;16.50;100.00
7834;BME280;3962;42.696;23.354;2023-06-14T02:39:28;94898.88;;;16.49;100.00
7834;BME280;3962;42.696;23.354;2023-06-14T02:41:55;94899.28;;;16.46;100.00
7834;BME280;3962;42.696;23.354;2023-06-14T02:44:24;94904.66;;;16.31;100.00
7834;BME280;3962;42.696;23.354;2023-06-14T02:46:52;94896.31;;;16.41;100.00
7834;BME280;3962;42.696;23.354;2023-06-14T02:49:20;94887.47;;;16.40;100.00
7834;BME280;3962;42.696;23.354;2023-06-14T02:51:47;94902.41;;;16.35;100.00
7834;BME280;3962;42.696;23.354;2023-06-14T02:54:14;94894.03;;;16.38;100.00
7834;BME280;3962;42.696;23.354;2023-06-14T02:56:41;94890.16;;;16.40;100.00
7834;BME280;3962;42.696;23.354;2023-06-14T02:59:08;94897.16;;;16.41;100.00
7834;BME280;3962;42.696;23.354;2023-06-14T03:01:34;94900.66;;;16.42;100.00
7834;BME280;3962;42.696;23.354;2023-06-14T03:04:04;94908.50;;;16.37;100.00
7834;BME280;3962;42.696;23.354;2023-06-14T03:06:32;94904.38;;;16.41;100.00
7834;BME280;3962;42.696;23.354;2023-06-14T03:09:00;94907.25;;;16.39;100.00
7834;BME280;3962;42.696;23.354;2023-06-14T03:11:30;94911.97;;;16.37;100.00
7834;BME280;3962;42.696;23.354;2023-06-14T03:13:56;94911.41;;;16.42;100.00
7834;BME280;3962;42.696;23.354;2023-06-14T03:16:23;94917.00;;;16.40;100.00
7834;BME280;3962;42.696;23.354;2023-06-14T03:18:51;94918.06;;;16.46;100.00
7834;BME280;3962;42.696;23.354;2023-06-14T03:21:18;94917.63;;;16.42;100.00
7834;BME280;3962;42.696;23.354;2023-06-14T03:23:47;94923.72;;;16.36;100.00
7834;BME280;3962;42.696;23.354;2023-06-14T03:26:14;94924.19;;;16.40;100.00
7834;BME280;3962;42.696;23.354;2023-06-14T03:28:43;94925.28;;;16.45;100.00
7834;BME280;3962;42.696;23.354;2023-06-14T03:31:10;94925.56;;;16.50;100.00
7834;BME280;3962;42.696;23.354;2023-06-14T03:33:37;94924.25;;;16.46;100.00
7834;BME280;3962;42.696;23.354;2023-06-14T03:36:04;94923.22;;;16.26;100.00
7834;BME280;3962;42.696;23.354;2023-06-14T03:38:31;94921.97;;;16.08;100.00
7834;BME280;3962;42.696;23.354;2023-06-14T03:40:59;94921.38;;;16.12;100.00
7834;BME280;3962;42.696;23.354;2023-06-14T03:43:27;94924.59;;;16.22;100.00
7834;BME280;3962;42.696;23.354;2023-06-14T03:45:55;94918.47;;;16.28;100.00
7834;BME280;3962;42.696;23.354;2023-06-14T03:48:22;94923.28;;;16.33;100.00
7834;BME280;3962;42.696;23.354;2023-06-14T03:50:49;94920.41;;;16.34;100.00
7834;BME280;3962;42.696;23.354;2023-06-14T03:53:16;94924.47;;;16.45;100.00
7834;BME280;3962;42.696;23.354;2023-06-14T03:55:42;94930.66;;;16.45;100.00
7834;BME280;3962;42.696;23.354;2023-06-14T03:58:11;94929.06;;;16.51;100.00
7834;BME280;3962;42.696;23.354;2023-06-14T04:00:38;94932.13;;;16.48;100.00
7834;BME280;3962;42.696;23.354;2023-06-14T04:03:05;94926.25;;;16.38;100.00
7834;BME280;3962;42.696;23.354;2023-06-14T04:05:32;94931.38;;;16.54;100.00
7834;BME280;3962;42.696;23.354;2023-06-14T04:07:59;94933.31;;;16.87;100.00
7834;BME280;3962;42.696;23.354;2023-06-14T04:10:26;94934.81;;;17.38;100.00
7834;BME280;3962;42.696;23.354;2023-06-14T04:12:53;94931.81;;;17.33;100.00
7834;BME280;3962;42.696;23.354;2023-06-14T04:15:21;94940.75;;;17.34;100.00
7834;BME280;3962;42.696;23.354;2023-06-14T04:17:48;94931.56;;;17.49;100.00
7834;BME280;3962;42.696;23.354;2023-06-14T04:20:15;94929.22;;;17.74;100.00
7834;BME280;3962;42.696;23.354;2023-06-14T04:22:42;94928.66;;;17.85;100.00
7834;BME280;3962;42.696;23.354;2023-06-14T04:25:12;94927.78;;;17.78;100.00
7834;BME280;3962;42.696;23.354;2023-06-14T04:27:38;94935.94;;;17.97;100.00
7834;BME280;3962;42.696;23.354;2023-06-14T04:30:07;94947.75;;;18.37;100.00
7834;BME280;3962;42.696;23.354;2023-06-14T04:32:36;94948.03;;;18.61;98.16
7834;BME280;3962;42.696;23.354;2023-06-14T04:35:05;94938.81;;;18.30;96.87
7834;BME280;3962;42.696;23.354;2023-06-14T04:37:32;94945.25;;;18.35;97.26
7834;BME280;3962;42.696;23.354;2023-06-14T04:40:00;94941.78;;;18.48;96.19
7834;BME280;3962;42.696;23.354;2023-06-14T04:42:30;94937.22;;;18.42;96.29
7834;BME280;3962;42.696;23.354;2023-06-14T04:44:58;94943.66;;;18.54;95.74
7834;BME280;3962;42.696;23.354;2023-06-14T04:47:25;94940.16;;;18.66;96.05
7834;BME280;3962;42.696;23.354;2023-06-14T04:49:57;94939.31;;;18.59;95.08
7834;BME280;3962;42.696;23.354;2023-06-14T04:52:26;94941.38;;;18.57;95.05
7834;BME280;3962;42.696;23.354;2023-06-14T04:54:55;94940.34;;;18.52;94.83
7834;BME280;3962;42.696;23.354;2023-06-14T04:57:22;94952.63;;;18.74;96.22
7834;BME280;3962;42.696;23.354;2023-06-14T04:59:51;94952.28;;;19.28;93.67
7834;BME280;3962;42.696;23.354;2023-06-14T05:02:21;94958.28;;;19.50;90.79
7834;BME280;3962;42.696;23.354;2023-06-14T05:04:48;94959.97;;;19.25;90.74
7834;BME280;3962;42.696;23.354;2023-06-14T05:07:16;94962.00;;;19.10;91.00
7834;BME280;3962;42.696;23.354;2023-06-14T05:09:44;94965.09;;;19.00;91.99
7834;BME280;3962;42.696;23.354;2023-06-14T05:12:11;94959.31;;;19.10;92.18
7834;BME280;3962;42.696;23.354;2023-06-14T05:14:37;94960.97;;;19.11;92.20
7834;BME280;3962;42.696;23.354;2023-06-14T05:17:07;94967.97;;;18.79;93.15
7834;BME280;3962;42.696;23.354;2023-06-14T05:19:35;94958.69;;;19.08;92.99
7834;BME280;3962;42.696;23.354;2023-06-14T05:22:02;94966.00;;;19.20;91.45
7834;BME280;3962;42.696;23.354;2023-06-14T05:24:32;94968.69;;;19.20;91.12
7834;BME280;3962;42.696;23.354;2023-06-14T05:27:00;94975.31;;;19.31;91.25
7834;BME280;3962;42.696;23.354;2023-06-14T05:29:27;94985.06;;;19.38;90.98
7834;BME280;3962;42.696;23.354;2023-06-14T05:31:53;94985.88;;;19.39;90.64
7834;BME280;3962;42.696;23.354;2023-06-14T05:34:20;94985.91;;;19.32;90.15
7834;BME280;3962;42.696;23.354;2023-06-14T05:36:47;94987.56;;;19.20;90.41
7834;BME280;3962;42.696;23.354;2023-06-14T05:39:14;94992.47;;;19.10;90.21
7834;BME280;3962;42.696;23.354;2023-06-14T05:41:42;94994.78;;;19.13;90.19
7834;BME280;3962;42.696;23.354;2023-06-14T05:44:09;94990.41;;;19.06;89.75
7834;BME280;3962;42.696;23.354;2023-06-14T05:46:36;94980.28;;;19.21;91.00
7834;BME280;3962;42.696;23.354;2023-06-14T05:49:05;94990.47;;;19.32;89.78
7834;BME280;3962;42.696;23.354;2023-06-14T05:51:32;94995.84;;;19.25;90.43
7834;BME280;3962;42.696;23.354;2023-06-14T05:53:59;94997.31;;;19.34;91.23
7834;BME280;3962;42.696;23.354;2023-06-14T05:56:26;94996.91;;;19.37;90.69
7834;BME280;3962;42.696;23.354;2023-06-14T05:58:56;94998.38;;;19.40;90.05
7834;BME280;3962;42.696;23.354;2023-06-14T06:01:23;94998.56;;;19.38;90.73
7834;BME280;3962;42.696;23.354;2023-06-14T06:03:50;95000.84;;;19.41;90.65
7834;BME280;3962;42.696;23.354;2023-06-14T06:06:17;94994.41;;;19.49;89.37
7834;BME280;3962;42.696;23.354;2023-06-14T06:08:44;94997.72;;;19.51;90.02
7834;BME280;3962;42.696;23.354;2023-06-14T06:11:11;95001.69;;;19.35;91.08
7834;BME280;3962;42.696;23.354;2023-06-14T06:13:40;94997.31;;;19.67;89.61
7834;BME280;3962;42.696;23.354;2023-06-14T06:16:09;95002.31;;;19.57;90.76
7834;BME280;3962;42.696;23.354;2023-06-14T06:18:35;95006.03;;;19.36;91.15
7834;BME280;3962;42.696;23.354;2023-06-14T06:21:03;94997.09;;;19.68;90.83
7834;BME280;3962;42.696;23.354;2023-06-14T06:23:31;95002.06;;;19.84;89.73
7834;BME280;3962;42.696;23.354;2023-06-14T06:25:57;95011.00;;;19.91;88.74
7834;BME280;3962;42.696;23.354;2023-06-14T06:28:24;95005.19;;;19.88;88.25
7834;BME280;3962;42.696;23.354;2023-06-14T06:30:51;95006.19;;;19.93;88.43
7834;BME280;3962;42.696;23.354;2023-06-14T06:33:20;95014.53;;;19.66;88.59
7834;BME280;3962;42.696;23.354;2023-06-14T06:35:47;95019.09;;;19.78;87.39
7834;BME280;3962;42.696;23.354;2023-06-14T06:38:14;95014.31;;;19.80;86.46
7834;BME280;3962;42.696;23.354;2023-06-14T06:40:41;95015.78;;;19.76;87.17
7834;BME280;3962;42.696;23.354;2023-06-14T06:43:08;95019.94;;;19.72;87.90
7834;BME280;3962;42.696;23.354;2023-06-14T06:45:35;95018.91;;;19.67;88.21
7834;BME280;3962;42.696;23.354;2023-06-14T06:48:02;95016.81;;;19.49;89.26
7834;BME280;3962;42.696;23.354;2023-06-14T06:50:30;95012.88;;;19.71;88.83
7834;BME280;3962;42.696;23.354;2023-06-14T06:52:57;95018.06;;;19.79;88.21
7834;BME280;3962;42.696;23.354;2023-06-14T06:55:24;95024.91;;;19.82;87.66
7834;BME280;3962;42.696;23.354;2023-06-14T06:57:51;95019.09;;;19.72;87.79
7834;BME280;3962;42.696;23.354;2023-06-14T07:00:20;95017.84;;;19.68;88.97
7834;BME280;3962;42.696;23.354;2023-06-14T07:02:46;95022.22;;;19.75;88.50
7834;BME280;3962;42.696;23.354;2023-06-14T07:05:13;95017.84;;;19.74;88.76
7834;BME280;3962;42.696;23.354;2023-06-14T07:07:42;95019.94;;;19.72;88.28
7834;BME280;3962;42.696;23.354;2023-06-14T07:10:08;95017.00;;;19.80;89.03
7834;BME280;3962;42.696;23.354;2023-06-14T07:12:35;95018.66;;;19.81;88.69
7834;BME280;3962;42.696;23.354;2023-06-14T07:15:06;95016.38;;;19.98;88.11
7834;BME280;3962;42.696;23.354;2023-06-14T07:17:34;95013.00;;;20.35;87.34
7834;BME280;3962;42.696;23.354;2023-06-14T07:20:01;95014.91;;;20.72;85.37
7834;BME280;3962;42.696;23.354;2023-06-14T07:22:38;95020.44;;;20.96;83.75
7834;BME280;3962;42.696;23.354;2023-06-14T07:25:08;95024.19;;;20.95;82.33
7834;BME280;3962;42.696;23.354;2023-06-14T07:27:35;95013.84;;;20.79;83.48
7834;BME280;3962;42.696;23.354;2023-06-14T07:30:01;95016.34;;;20.74;83.66
7834;BME280;3962;42.696;23.354;2023-06-14T07:32:28;95016.09;;;20.82;83.55
7834;BME280;3962;42.696;23.354;2023-06-14T07:34:55;95005.47;;;22.23;80.73
7834;BME280;3962;42.696;23.354;2023-06-14T07:37:23;95015.19;;;23.72;72.76
7834;BME280;3962;42.696;23.354;2023-06-14T07:39:50;95014.41;;;24.64;68.50
7834;BME280;3962;42.696;23.354;2023-06-14T07:42:18;95008.75;;;25.21;65.12
7834;BME280;3962;42.696;23.354;2023-06-14T07:44:47;95022.34;;;25.33;64.51
7834;BME280;3962;42.696;23.354;2023-06-14T07:47:16;95019.78;;;25.71;63.85
7834;BME280;3962;42.696;23.354;2023-06-14T07:49:44;95020.81;;;26.31;60.04
7834;BME280;3962;42.696;23.354;2023-06-14T07:52:11;95031.00;;;26.52;60.10
7834;BME280;3962;42.696;23.354;2023-06-14T07:54:39;95034.13;;;26.82;57.64
7834;BME280;3962;42.696;23.354;2023-06-14T07:57:06;95038.41;;;26.94;58.14
7834;BME280;3962;42.696;23.354;2023-06-14T07:59:36;95042.41;;;26.87;57.29
7834;BME280;3962;42.696;23.354;2023-06-14T08:02:03;95031.81;;;26.03;59.12
7834;BME280;3962;42.696;23.354;2023-06-14T08:04:31;95028.47;;;25.40;60.28
7834;BME280;3962;42.696;23.354;2023-06-14T08:06:58;95034.66;;;25.35;60.97
7834;BME280;3962;42.696;23.354;2023-06-14T08:09:26;95037.06;;;25.20;61.43
7834;BME280;3962;42.696;23.354;2023-06-14T08:11:54;95049.41;;;25.11;60.88
7834;BME280;3962;42.696;23.354;2023-06-14T08:14:21;95045.31;;;24.86;61.89
7834;BME280;3962;42.696;23.354;2023-06-14T08:16:49;95045.25;;;24.69;61.67
7834;BME280;3962;42.696;23.354;2023-06-14T08:19:16;95052.13;;;24.14;62.72
7834;BME280;3962;42.696;23.354;2023-06-14T08:21:43;95054.84;;;23.62;63.79
7834;BME280;3962;42.696;23.354;2023-06-14T08:24:11;95043.13;;;23.20;65.53
7834;BME280;3962;42.696;23.354;2023-06-14T08:26:40;95054.13;;;23.25;65.59
7834;BME280;3962;42.696;23.354;2023-06-14T08:29:07;95054.84;;;23.32;64.75
7834;BME280;3962;42.696;23.354;2023-06-14T08:31:34;95049.13;;;23.40;65.36
7834;BME280;3962;42.696;23.354;2023-06-14T08:34:03;95061.28;;;23.49;65.42
7834;BME280;3962;42.696;23.354;2023-06-14T08:36:30;95055.34;;;23.82;64.58
7834;BME280;3962;42.696;23.354;2023-06-14T08:38:57;95051.69;;;23.76;64.54
7834;BME280;3962;42.696;23.354;2023-06-14T08:41:24;95048.91;;;23.94;63.89
7834;BME280;3962;42.696;23.354;2023-06-14T08:43:51;95041.25;;;23.62;64.07
7834;BME280;3962;42.696;23.354;2023-06-14T08:46:18;95043.34;;;23.60;63.98
7834;BME280;3962;42.696;23.354;2023-06-14T08:48:48;95039.34;;;23.92;63.63
7834;BME280;3962;42.696;23.354;2023-06-14T08:51:18;95035.09;;;24.65;59.58
7834;BME280;3962;42.696;23.354;2023-06-14T08:53:52;95039.09;;;25.13;59.06
7834;BME280;3962;42.696;23.354;2023-06-14T08:56:24;95035.91;;;25.44;59.21
7834;BME280;3962;42.696;23.354;2023-06-14T08:58:53;95036.25;;;25.76;57.91
7834;BME280;3962;42.696;23.354;2023-06-14T09:01:20;95034.47;;;25.98;58.19
7834;BME280;3962;42.696;23.354;2023-06-14T09:03:48;95036.34;;;25.81;57.30
7834;BME280;3962;42.696;23.354;2023-06-14T09:06:15;95032.84;;;25.97;56.99
7834;BME280;3962;42.696;23.354;2023-06-14T09:08:46;95038.34;;;26.02;56.42
7834;BME280;3962;42.696;23.354;2023-06-14T09:11:15;95035.22;;;26.10;56.96
7834;BME280;3962;42.696;23.354;2023-06-14T09:13:46;95035.59;;;25.85;57.23
7834;BME280;3962;42.696;23.354;2023-06-14T09:16:14;95025.75;;;25.40;58.15
7834;BME280;3962;42.696;23.354;2023-06-14T09:18:42;95021.94;;;24.62;60.22
7834;BME280;3962;42.696;23.354;2023-06-14T09:21:10;95017.84;;;24.13;61.17
7834;BME280;3962;42.696;23.354;2023-06-14T09:23:39;95023.38;;;24.18;61.54
7834;BME280;3962;42.696;23.354;2023-06-14T09:26:11;95021.97;;;24.39;61.46
7834;BME280;3962;42.696;23.354;2023-06-14T09:28:41;95024.81;;;24.55;60.53
7834;BME280;3962;42.696;23.354;2023-06-14T09:31:10;95023.63;;;24.17;61.34
7834;BME280;3962;42.696;23.354;2023-06-14T09:33:37;95022.94;;;24.10;60.91
7834;BME280;3962;42.696;23.354;2023-06-14T09:36:15;95016.78;;;24.37;60.62
7834;BME280;3962;42.696;23.354;2023-06-14T09:38:51;95023.38;;;24.64;60.42
7834;BME280;3962;42.696;23.354;2023-06-14T09:41:20;95015.88;;;25.34;58.87
7834;BME280;3962;42.696;23.354;2023-06-14T09:43:48;95020.22;;;25.79;57.75
7834;BME280;3962;42.696;23.354;2023-06-14T09:46:20;95013.09;;;25.45;58.30
7834;BME280;3962;42.696;23.354;2023-06-14T09:48:49;95006.84;;;25.33;58.03
7834;BME280;3962;42.696;23.354;2023-06-14T09:51:18;95004.75;;;25.24;57.54
7834;BME280;3962;42.696;23.354;2023-06-14T09:53:49;95007.28;;;24.74;58.29
7834;BME280;3962;42.696;23.354;2023-06-14T09:56:23;95012.28;;;24.20;59.59
7834;BME280;3962;42.696;23.354;2023-06-14T09:58:55;95007.31;;;24.28;60.08
7834;BME280;3962;42.696;23.354;2023-06-14T10:01:24;95000.09;;;24.34;60.46
7834;BME280;3962;42.696;23.354;2023-06-14T10:03:55;94995.38;;;24.29;60.55
7834;BME280;3962;42.696;23.354;2023-06-14T10:06:23;94991.25;;;24.15;60.50
7834;BME280;3962;42.696;23.354;2023-06-14T10:08:52;94995.72;;;23.87;61.00
7834;BME280;3962;42.696;23.354;2023-06-14T10:11:25;94994.25;;;23.61;62.54
7834;BME280;3962;42.696;23.354;2023-06-14T10:13:52;94991.88;;;23.65;62.35
7834;BME280;3962;42.696;23.354;2023-06-14T10:16:26;94986.38;;;23.94;61.78
7834;BME280;3962;42.696;23.354;2023-06-14T10:19:01;94983.28;;;24.37;60.45
7834;BME280;3962;42.696;23.354;2023-06-14T10:21:41;94981.28;;;24.32;60.42
7834;BME280;3962;42.696;23.354;2023-06-14T10:24:13;94976.13;;;23.96;60.55
7834;BME280;3962;42.696;23.354;2023-06-14T10:26:51;94975.50;;;23.94;61.03
7834;BME280;3962;42.696;23.354;2023-06-14T10:29:19;94974.56;;;24.12;61.92
7834;BME280;3962;42.696;23.354;2023-06-14T10:31:47;94976.34;;;24.92;61.10
7834;BME280;3962;42.696;23.354;2023-06-14T10:34:22;94967.91;;;25.21;61.33
7834;BME280;3962;42.696;23.354;2023-06-14T10:37:03;94972.41;;;25.27;57.95
7834;BME280;3962;42.696;23.354;2023-06-14T10:39:32;94974.00;;;24.84;58.83
7834;BME280;3962;42.696;23.354;2023-06-14T10:42:01;94970.41;;;24.55;59.93
7834;BME280;3962;42.696;23.354;2023-06-14T10:44:43;94971.63;;;25.15;58.55
7834;BME280;3962;42.696;23.354;2023-06-14T10:47:20;94963.50;;;25.32;58.02
7834;BME280;3962;42.696;23.354;2023-06-14T10:49:50;94957.94;;;25.55;58.48
7834;BME280;3962;42.696;23.354;2023-06-14T10:52:21;94953.44;;;25.04;57.80
7834;BME280;3962;42.696;23.354;2023-06-14T10:55:08;94961.91;;;24.91;58.91
7834;BME280;3962;42.696;23.354;2023-06-14T10:57:38;94959.16;;;24.52;59.58
7834;BME280;3962;42.696;23.354;2023-06-14T11:00:07;94944.09;;;24.21;60.46
7834;BME280;3962;42.696;23.354;2023-06-14T11:05:52;94938.94;;;24.59;59.67
7834;BME280;3962;42.696;23.354;2023-06-14T11:11:08;94940.47;;;26.00;54.68
7834;BME280;3962;42.696;23.354;2023-06-14T11:13:38;94937.88;;;25.94;54.65
7834;BME280;3962;42.696;23.354;2023-06-14T11:16:10;94938.88;;;25.88;54.58
7834;BME280;3962;42.696;23.354;2023-06-14T11:18:38;94938.88;;;26.04;54.63
7834;BME280;3962;42.696;23.354;2023-06-14T11:21:05;94939.31;;;25.96;54.61
7834;BME280;3962;42.696;23.354;2023-06-14T11:23:34;94934.88;;;26.28;54.10
7834;BME280;3962;42.696;23.354;2023-06-14T11:26:00;94930.41;;;26.60;53.91
7834;BME280;3962;42.696;23.354;2023-06-14T11:28:37;94924.03;;;25.95;53.75
7834;BME280;3962;42.696;23.354;2023-06-14T11:31:04;94928.03;;;25.76;54.92
7834;BME280;3962;42.696;23.354;2023-06-14T11:33:31;94918.69;;;26.22;53.73
7834;BME280;3962;42.696;23.354;2023-06-14T11:35:58;94926.34;;;26.84;52.10
7834;BME280;3962;42.696;23.354;2023-06-14T11:38:25;94925.72;;;26.99;51.30
7834;BME280;3962;42.696;23.354;2023-06-14T11:40:52;94933.09;;;26.77;51.22
7834;BME280;3962;42.696;23.354;2023-06-14T11:43:19;94928.31;;;26.89;50.95
7834;BME280;3962;42.696;23.354;2023-06-14T11:45:49;94923.31;;;27.07;50.23
7834;BME280;3962;42.696;23.354;2023-06-14T11:48:16;94913.94;;;26.98;50.07
7834;BME280;3962;42.696;23.354;2023-06-14T11:50:43;94908.66;;;27.13;50.47
7834;BME280;3962;42.696;23.354;2023-06-14T11:53:10;94905.53;;;27.26;50.17
7834;BME280;3962;42.696;23.354;2023-06-14T11:55:37;94904.53;;;26.63;51.26
7834;BME280;3962;42.696;23.354;2023-06-14T11:58:04;94892.06;;;25.91;52.98
7834;BME280;3962;42.696;23.354;2023-06-14T12:00:32;94897.28;;;25.43;52.74
7834;BME280;3962;42.696;23.354;2023-06-14T12:03:03;94887.75;;;25.29;53.74
7834;BME280;3962;42.696;23.354;2023-06-14T12:05:30;94890.31;;;25.35;54.47
7834;BME280;3962;42.696;23.354;2023-06-14T12:07:58;94879.72;;;26.05;53.41
7834;BME280;3962;42.696;23.354;2023-06-14T12:10:28;94878.19;;;26.52;52.17
7834;BME280;3962;42.696;23.354;2023-06-14T12:12:59;94870.56;;;26.54;53.36
7834;BME280;3962;42.696;23.354;2023-06-14T12:15:28;94877.78;;;26.65;52.01
7834;BME280;3962;42.696;23.354;2023-06-14T12:17:55;94875.81;;;27.08;50.32
7834;BME280;3962;42.696;23.354;2023-06-14T12:20:29;94885.19;;;27.43;50.47
7834;BME280;3962;42.696;23.354;2023-06-14T12:22:58;94869.88;;;26.90;49.87
7834;BME280;3962;42.696;23.354;2023-06-14T12:25:29;94863.13;;;26.71;50.54
7834;BME280;3962;42.696;23.354;2023-06-14T12:27:58;94864.22;;;26.70;51.50
7834;BME280;3962;42.696;23.354;2023-06-14T12:30:25;94861.47;;;26.27;51.89
7834;BME280;3962;42.696;23.354;2023-06-14T12:32:52;94862.19;;;26.17;52.83
7834;BME280;3962;42.696;23.354;2023-06-14T12:35:19;94861.13;;;26.02;51.95
7834;BME280;3962;42.696;23.354;2023-06-14T12:37:47;94860.31;;;26.01;53.48
7834;BME280;3962;42.696;23.354;2023-06-14T12:40:14;94856.84;;;26.06;52.57
7834;BME280;3962;42.696;23.354;2023-06-14T12:42:41;94852.97;;;25.85;52.80
7834;BME280;3962;42.696;23.354;2023-06-14T12:45:09;94854.63;;;25.86;53.54
7834;BME280;3962;42.696;23.354;2023-06-14T12:47:36;94857.47;;;26.13;53.43
7834;BME280;3962;42.696;23.354;2023-06-14T12:50:04;94850.50;;;26.22;52.34
7834;BME280;3962;42.696;23.354;2023-06-14T12:52:32;94841.00;;;25.86;52.76
7834;BME280;3962;42.696;23.354;2023-06-14T12:55:03;94842.09;;;25.52;54.29
7834;BME280;3962;42.696;23.354;2023-06-14T12:57:30;94834.84;;;25.41;52.59
7834;BME280;3962;42.696;23.354;2023-06-14T12:59:59;94835.84;;;25.35;52.55
7834;BME280;3962;42.696;23.354;2023-06-14T13:02:26;94833.88;;;25.31;53.19
7834;BME280;3962;42.696;23.354;2023-06-14T13:04:54;94841.94;;;25.42;53.17
7834;BME280;3962;42.696;23.354;2023-06-14T13:07:24;94836.91;;;25.51;53.51
7834;BME280;3962;42.696;23.354;2023-06-14T13:09:50;94834.81;;;25.74;52.19
7834;BME280;3962;42.696;23.354;2023-06-14T13:12:19;94831.63;;;25.61;50.92
7834;BME280;3962;42.696;23.354;2023-06-14T13:14:46;94832.84;;;25.70;51.60
7834;BME280;3962;42.696;23.354;2023-06-14T13:17:13;94845.56;;;25.81;51.33
7834;BME280;3962;42.696;23.354;2023-06-14T13:19:40;94848.72;;;25.73;53.81